Terminal Aerodrome Forecast
Issued by NWS Cleveland, OH

Home | Current Version | Previous Version | Graphics & Text | Print | Product List | Glossary On
Versions: 1 2 3 4 5 6 7 8 9 10 11 12 13 14 15 16 17
000
FTUS41 KCLE 291400 AAA
TAFCAK
TAF AMD
KCAK 291402Z 2914/3012 00000KT 5SM HZ SKC
     FM291530 28005KT P6SM SCT045
     FM300000 VRB03KT P6SM SCT200
     FM301100 27005KT P6SM VCSH BKN040 OVC100=

USA.gov is the U.S. government's official web portal to all federal, state and local government web resources and services.